Hilda, Canada
Current Conditions -  °F | °C
As of 6:00 PM on Wednesday 22 Oct 2014 (Local Time) from CYXH Reporting Station
Broken Clouds Broken Clouds  
Wind Chill: 61°   Ceiling: 28000
Heat Index: 61°   Visibility: 30mi
Dew Point: 34°   Wind: 13mph
Humidity: 36%   Direction: 200°SSW
Pressure: 29.73"   Gusts: NA
Location:  50.48°N, 110.02°W
Report Text: CYXH 230000Z 20011KT 30SM BKN280 16/01 A2973 RMK CI7 SLP076 DENSITY ALT 3200FT
Loading
Personal Weather Stations






























Interactive Weather Map
Tropical Storm Tracking
New forecast layout! Learn more

10-Day Weather Forecast

Advertisements
Track Severe Weather on mobile